Terminal Aerodrome Forecast
Issued by NWS

Home | Current Version | Previous Version | Text Only | Print | Product List | Glossary On
Versions: 1 2 3 4 5 6 7 8 9 10 11 12 13 14 15
000
FTUS43 KAPX 200801 AAA
TAFAPN
TAF AMD
KAPN 200801Z 2008/2106 32006KT P6SM OVC015
     FM201100 26006KT P6SM BKN040
     FM201300 26006KT P6SM BKN200
     FM201500 34006KT P6SM SCT200=

USA.gov is the U.S. government's official web portal to all federal, state and local government web resources and services.